sensor_id;sensor_type;location;lat;lon;timestamp;P1;durP1;ratioP1;P2;durP2;ratioP2
75171;SDS011;63750;52.418;20.742;2023-09-12T00:01:56;22.90;;;19.40;;
75171;SDS011;63750;52.418;20.742;2023-09-12T00:04:24;23.70;;;20.30;;
75171;SDS011;63750;52.418;20.742;2023-09-12T00:06:52;22.10;;;19.70;;
75171;SDS011;63750;52.418;20.742;2023-09-12T00:09:21;24.50;;;21.70;;
75171;SDS011;63750;52.418;20.742;2023-09-12T00:11:49;21.10;;;18.80;;
75171;SDS011;63750;52.418;20.742;2023-09-12T00:14:17;22.40;;;18.80;;
75171;SDS011;63750;52.418;20.742;2023-09-12T00:16:47;27.50;;;21.10;;
75171;SDS011;63750;52.418;20.742;2023-09-12T00:19:15;23.30;;;20.60;;
75171;SDS011;63750;52.418;20.742;2023-09-12T00:21:43;21.90;;;19.40;;
75171;SDS011;63750;52.418;20.742;2023-09-12T00:24:11;23.60;;;20.10;;
75171;SDS011;63750;52.418;20.742;2023-09-12T00:26:39;22.70;;;19.30;;
75171;SDS011;63750;52.418;20.742;2023-09-12T00:29:08;23.20;;;20.80;;
75171;SDS011;63750;52.418;20.742;2023-09-12T00:31:36;22.20;;;19.70;;
75171;SDS011;63750;52.418;20.742;2023-09-12T00:34:04;23.00;;;19.00;;
75171;SDS011;63750;52.418;20.742;2023-09-12T00:36:32;24.60;;;20.50;;
75171;SDS011;63750;52.418;20.742;2023-09-12T00:39:00;21.80;;;19.60;;
75171;SDS011;63750;52.418;20.742;2023-09-12T00:41:28;23.40;;;21.00;;
75171;SDS011;63750;52.418;20.742;2023-09-12T00:43:56;23.10;;;19.70;;
75171;SDS011;63750;52.418;20.742;2023-09-12T00:46:25;22.80;;;19.50;;
75171;SDS011;63750;52.418;20.742;2023-09-12T00:48:54;22.40;;;19.90;;
75171;SDS011;63750;52.418;20.742;2023-09-12T00:51:23;21.60;;;19.30;;
75171;SDS011;63750;52.418;20.742;2023-09-12T00:53:53;22.80;;;19.50;;
75171;SDS011;63750;52.418;20.742;2023-09-12T00:56:22;23.60;;;19.30;;
75171;SDS011;63750;52.418;20.742;2023-09-12T00:58:50;21.80;;;19.60;;
75171;SDS011;63750;52.418;20.742;2023-09-12T01:01:19;23.30;;;20.20;;
75171;SDS011;63750;52.418;20.742;2023-09-12T01:03:48;24.10;;;21.40;;
75171;SDS011;63750;52.418;20.742;2023-09-12T01:06:16;22.90;;;20.10;;
75171;SDS011;63750;52.418;20.742;2023-09-12T01:08:48;23.40;;;20.10;;
75171;SDS011;63750;52.418;20.742;2023-09-12T01:11:16;23.70;;;20.70;;
75171;SDS011;63750;52.418;20.742;2023-09-12T01:13:46;22.80;;;19.70;;
75171;SDS011;63750;52.418;20.742;2023-09-12T01:16:14;22.90;;;19.30;;
75171;SDS011;63750;52.418;20.742;2023-09-12T01:18:42;24.30;;;20.60;;
75171;SDS011;63750;52.418;20.742;2023-09-12T01:21:20;25.20;;;20.90;;
75171;SDS011;63750;52.418;20.742;2023-09-12T01:24:13;24.50;;;21.40;;
75171;SDS011;63750;52.418;20.742;2023-09-12T01:29:48;22.00;;;19.00;;
75171;SDS011;63750;52.418;20.742;2023-09-12T01:32:20;26.60;;;20.80;;
75171;SDS011;63750;52.418;20.742;2023-09-12T01:34:48;22.10;;;19.40;;
75171;SDS011;63750;52.418;20.742;2023-09-12T01:37:16;22.80;;;20.00;;
75171;SDS011;63750;52.418;20.742;2023-09-12T01:39:44;25.20;;;22.20;;
75171;SDS011;63750;52.418;20.742;2023-09-12T01:42:13;25.00;;;20.60;;
75171;SDS011;63750;52.418;20.742;2023-09-12T01:44:44;26.00;;;20.50;;
75171;SDS011;63750;52.418;20.742;2023-09-12T01:47:16;23.30;;;20.80;;
75171;SDS011;63750;52.418;20.742;2023-09-12T01:49:45;23.50;;;20.00;;
75171;SDS011;63750;52.418;20.742;2023-09-12T01:52:18;21.40;;;18.50;;
75171;SDS011;63750;52.418;20.742;2023-09-12T01:54:46;24.20;;;19.30;;
75171;SDS011;63750;52.418;20.742;2023-09-12T01:57:15;23.10;;;19.90;;
75171;SDS011;63750;52.418;20.742;2023-09-12T01:59:44;21.10;;;18.60;;
75171;SDS011;63750;52.418;20.742;2023-09-12T02:02:13;21.20;;;18.90;;
75171;SDS011;63750;52.418;20.742;2023-09-12T02:04:41;21.90;;;19.50;;
75171;SDS011;63750;52.418;20.742;2023-09-12T02:07:13;20.80;;;18.60;;
75171;SDS011;63750;52.418;20.742;2023-09-12T02:09:41;21.10;;;18.50;;
75171;SDS011;63750;52.418;20.742;2023-09-12T02:12:09;21.30;;;18.80;;
75171;SDS011;63750;52.418;20.742;2023-09-12T02:14:37;20.80;;;18.40;;
75171;SDS011;63750;52.418;20.742;2023-09-12T02:17:05;21.10;;;18.80;;
75171;SDS011;63750;52.418;20.742;2023-09-12T02:19:33;21.40;;;18.90;;
75171;SDS011;63750;52.418;20.742;2023-09-12T02:22:02;22.20;;;19.80;;
75171;SDS011;63750;52.418;20.742;2023-09-12T02:24:30;21.00;;;18.70;;
75171;SDS011;63750;52.418;20.742;2023-09-12T02:27:02;20.40;;;18.20;;
75171;SDS011;63750;52.418;20.742;2023-09-12T02:29:30;20.80;;;18.20;;
75171;SDS011;63750;52.418;20.742;2023-09-12T02:31:58;21.20;;;19.00;;
75171;SDS011;63750;52.418;20.742;2023-09-12T02:34:26;22.60;;;19.20;;
75171;SDS011;63750;52.418;20.742;2023-09-12T02:36:55;21.20;;;18.70;;
75171;SDS011;63750;52.418;20.742;2023-09-12T02:39:23;21.30;;;18.70;;
75171;SDS011;63750;52.418;20.742;2023-09-12T02:41:51;22.80;;;20.40;;
75171;SDS011;63750;52.418;20.742;2023-09-12T02:44:19;21.50;;;18.40;;
75171;SDS011;63750;52.418;20.742;2023-09-12T02:46:47;21.50;;;18.70;;
75171;SDS011;63750;52.418;20.742;2023-09-12T02:49:16;20.80;;;18.30;;
75171;SDS011;63750;52.418;20.742;2023-09-12T02:51:45;22.20;;;19.80;;
75171;SDS011;63750;52.418;20.742;2023-09-12T02:54:13;22.10;;;19.40;;
75171;SDS011;63750;52.418;20.742;2023-09-12T02:56:41;20.30;;;18.20;;
75171;SDS011;63750;52.418;20.742;2023-09-12T02:59:09;20.80;;;18.30;;
75171;SDS011;63750;52.418;20.742;2023-09-12T03:01:37;20.40;;;18.40;;
75171;SDS011;63750;52.418;20.742;2023-09-12T03:04:05;21.20;;;19.10;;
75171;SDS011;63750;52.418;20.742;2023-09-12T03:06:33;21.50;;;19.20;;
75171;SDS011;63750;52.418;20.742;2023-09-12T03:09:01;22.40;;;19.20;;
75171;SDS011;63750;52.418;20.742;2023-09-12T03:11:30;21.80;;;19.40;;
75171;SDS011;63750;52.418;20.742;2023-09-12T03:13:58;21.20;;;18.90;;
75171;SDS011;63750;52.418;20.742;2023-09-12T03:16:26;20.30;;;18.30;;
75171;SDS011;63750;52.418;20.742;2023-09-12T03:18:54;22.90;;;19.30;;
75171;SDS011;63750;52.418;20.742;2023-09-12T03:21:22;22.50;;;20.10;;
75171;SDS011;63750;52.418;20.742;2023-09-12T03:23:50;20.90;;;18.70;;
75171;SDS011;63750;52.418;20.742;2023-09-12T03:26:18;22.40;;;20.00;;
75171;SDS011;63750;52.418;20.742;2023-09-12T03:28:48;22.70;;;20.10;;
75171;SDS011;63750;52.418;20.742;2023-09-12T03:31:16;23.60;;;20.00;;
75171;SDS011;63750;52.418;20.742;2023-09-12T03:33:45;21.40;;;19.20;;
75171;SDS011;63750;52.418;20.742;2023-09-12T03:36:13;20.40;;;18.30;;
75171;SDS011;63750;52.418;20.742;2023-09-12T03:38:41;22.20;;;19.70;;
75171;SDS011;63750;52.418;20.742;2023-09-12T03:41:09;23.30;;;20.00;;
75171;SDS011;63750;52.418;20.742;2023-09-12T03:43:38;20.70;;;18.50;;
75171;SDS011;63750;52.418;20.742;2023-09-12T03:46:06;21.20;;;19.00;;
75171;SDS011;63750;52.418;20.742;2023-09-12T03:48:34;22.00;;;19.20;;
75171;SDS011;63750;52.418;20.742;2023-09-12T03:51:03;23.10;;;20.70;;
75171;SDS011;63750;52.418;20.742;2023-09-12T03:53:31;24.70;;;20.70;;
75171;SDS011;63750;52.418;20.742;2023-09-12T03:55:59;23.20;;;20.80;;
75171;SDS011;63750;52.418;20.742;2023-09-12T03:58:27;22.70;;;18.60;;
75171;SDS011;63750;52.418;20.742;2023-09-12T04:00:55;23.60;;;19.20;;
75171;SDS011;63750;52.418;20.742;2023-09-12T04:03:23;21.70;;;19.20;;
75171;SDS011;63750;52.418;20.742;2023-09-12T04:05:51;21.50;;;19.20;;
75171;SDS011;63750;52.418;20.742;2023-09-12T04:08:20;20.90;;;18.60;;
75171;SDS011;63750;52.418;20.742;2023-09-12T04:10:48;22.20;;;19.20;;
75171;SDS011;63750;52.418;20.742;2023-09-12T04:13:16;21.80;;;19.50;;
75171;SDS011;63750;52.418;20.742;2023-09-12T04:15:44;22.60;;;18.40;;
75171;SDS011;63750;52.418;20.742;2023-09-12T04:18:12;21.70;;;19.20;;
75171;SDS011;63750;52.418;20.742;2023-09-12T04:20:40;22.60;;;20.10;;
75171;SDS011;63750;52.418;20.742;2023-09-12T04:23:08;22.80;;;20.30;;
75171;SDS011;63750;52.418;20.742;2023-09-12T04:25:36;17.40;;;15.50;;
75171;SDS011;63750;52.418;20.742;2023-09-12T04:28:08;17.40;;;15.40;;
75171;SDS011;63750;52.418;20.742;2023-09-12T04:30:36;18.40;;;15.40;;
75171;SDS011;63750;52.418;20.742;2023-09-12T04:33:04;18.20;;;16.30;;
75171;SDS011;63750;52.418;20.742;2023-09-12T04:35:34;19.00;;;17.00;;
75171;SDS011;63750;52.418;20.742;2023-09-12T04:38:02;18.90;;;16.20;;
75171;SDS011;63750;52.418;20.742;2023-09-12T04:40:30;17.90;;;16.10;;
75171;SDS011;63750;52.418;20.742;2023-09-12T04:42:58;20.40;;;18.20;;
75171;SDS011;63750;52.418;20.742;2023-09-12T04:45:26;20.30;;;18.10;;
75171;SDS011;63750;52.418;20.742;2023-09-12T04:47:55;20.20;;;18.10;;
75171;SDS011;63750;52.418;20.742;2023-09-12T04:50:23;21.60;;;18.40;;
75171;SDS011;63750;52.418;20.742;2023-09-12T04:52:51;21.10;;;18.40;;
75171;SDS011;63750;52.418;20.742;2023-09-12T04:55:19;19.50;;;17.20;;
75171;SDS011;63750;52.418;20.742;2023-09-12T04:57:47;19.10;;;16.60;;
75171;SDS011;63750;52.418;20.742;2023-09-12T05:00:16;19.00;;;16.90;;
75171;SDS011;63750;52.418;20.742;2023-09-12T05:02:44;22.50;;;18.60;;
75171;SDS011;63750;52.418;20.742;2023-09-12T05:05:12;19.70;;;17.60;;
75171;SDS011;63750;52.418;20.742;2023-09-12T05:07:41;20.40;;;18.10;;
75171;SDS011;63750;52.418;20.742;2023-09-12T05:10:09;21.10;;;18.90;;
75171;SDS011;63750;52.418;20.742;2023-09-12T05:12:37;21.30;;;19.10;;
75171;SDS011;63750;52.418;20.742;2023-09-12T05:15:06;20.00;;;17.90;;
75171;SDS011;63750;52.418;20.742;2023-09-12T05:17:34;21.20;;;19.10;;
75171;SDS011;63750;52.418;20.742;2023-09-12T05:20:03;21.00;;;18.80;;
75171;SDS011;63750;52.418;20.742;2023-09-12T05:22:32;23.20;;;20.00;;
75171;SDS011;63750;52.418;20.742;2023-09-12T05:25:01;20.80;;;18.60;;
75171;SDS011;63750;52.418;20.742;2023-09-12T05:27:29;21.80;;;19.40;;
75171;SDS011;63750;52.418;20.742;2023-09-12T05:29:57;20.00;;;17.40;;
75171;SDS011;63750;52.418;20.742;2023-09-12T05:32:25;21.00;;;18.80;;
75171;SDS011;63750;52.418;20.742;2023-09-12T05:34:53;20.50;;;18.20;;
75171;SDS011;63750;52.418;20.742;2023-09-12T05:37:21;20.20;;;18.20;;
75171;SDS011;63750;52.418;20.742;2023-09-12T05:39:50;19.80;;;17.70;;
75171;SDS011;63750;52.418;20.742;2023-09-12T05:42:18;19.70;;;17.20;;
75171;SDS011;63750;52.418;20.742;2023-09-12T05:44:46;20.80;;;17.60;;
75171;SDS011;63750;52.418;20.742;2023-09-12T05:47:14;20.90;;;18.60;;
75171;SDS011;63750;52.418;20.742;2023-09-12T05:49:42;19.60;;;17.60;;
75171;SDS011;63750;52.418;20.742;2023-09-12T05:52:10;20.90;;;18.40;;
75171;SDS011;63750;52.418;20.742;2023-09-12T05:54:38;21.30;;;19.00;;
75171;SDS011;63750;52.418;20.742;2023-09-12T05:57:07;21.40;;;18.80;;
75171;SDS011;63750;52.418;20.742;2023-09-12T05:59:37;20.70;;;18.70;;
75171;SDS011;63750;52.418;20.742;2023-09-12T06:02:06;20.40;;;18.30;;
75171;SDS011;63750;52.418;20.742;2023-09-12T06:04:34;21.50;;;19.20;;
75171;SDS011;63750;52.418;20.742;2023-09-12T06:07:03;19.50;;;17.40;;
75171;SDS011;63750;52.418;20.742;2023-09-12T06:09:31;20.20;;;18.00;;
75171;SDS011;63750;52.418;20.742;2023-09-12T06:11:59;20.10;;;17.90;;
75171;SDS011;63750;52.418;20.742;2023-09-12T06:14:28;21.30;;;19.10;;
75171;SDS011;63750;52.418;20.742;2023-09-12T06:16:56;21.30;;;19.20;;
75171;SDS011;63750;52.418;20.742;2023-09-12T06:19:24;20.30;;;18.20;;
75171;SDS011;63750;52.418;20.742;2023-09-12T06:21:52;20.40;;;18.20;;
75171;SDS011;63750;52.418;20.742;2023-09-12T06:24:20;20.20;;;18.20;;
75171;SDS011;63750;52.418;20.742;2023-09-12T06:26:49;19.80;;;17.80;;
75171;SDS011;63750;52.418;20.742;2023-09-12T06:29:17;20.80;;;18.70;;
75171;SDS011;63750;52.418;20.742;2023-09-12T06:31:45;21.30;;;19.00;;
75171;SDS011;63750;52.418;20.742;2023-09-12T06:34:13;20.10;;;17.90;;
75171;SDS011;63750;52.418;20.742;2023-09-12T06:36:41;19.50;;;17.50;;
75171;SDS011;63750;52.418;20.742;2023-09-12T06:39:09;20.40;;;18.10;;
75171;SDS011;63750;52.418;20.742;2023-09-12T06:41:38;21.90;;;19.20;;
75171;SDS011;63750;52.418;20.742;2023-09-12T06:44:06;20.00;;;17.90;;
75171;SDS011;63750;52.418;20.742;2023-09-12T06:46:34;20.60;;;18.10;;
75171;SDS011;63750;52.418;20.742;2023-09-12T06:49:02;20.20;;;18.00;;
75171;SDS011;63750;52.418;20.742;2023-09-12T06:51:30;19.70;;;17.60;;
75171;SDS011;63750;52.418;20.742;2023-09-12T06:53:58;18.70;;;16.70;;
75171;SDS011;63750;52.418;20.742;2023-09-12T06:56:27;20.00;;;17.90;;
75171;SDS011;63750;52.418;20.742;2023-09-12T06:58:55;19.70;;;17.60;;
75171;SDS011;63750;52.418;20.742;2023-09-12T07:01:23;19.10;;;17.10;;
75171;SDS011;63750;52.418;20.742;2023-09-12T07:03:51;18.50;;;16.60;;
75171;SDS011;63750;52.418;20.742;2023-09-12T07:06:19;20.40;;;18.40;;
75171;SDS011;63750;52.418;20.742;2023-09-12T07:08:47;19.30;;;17.10;;
75171;SDS011;63750;52.418;20.742;2023-09-12T07:11:16;18.50;;;16.60;;
75171;SDS011;63750;52.418;20.742;2023-09-12T07:13:44;19.70;;;17.30;;
75171;SDS011;63750;52.418;20.742;2023-09-12T07:16:12;19.70;;;17.70;;
75171;SDS011;63750;52.418;20.742;2023-09-12T07:18:40;18.80;;;16.80;;
75171;SDS011;63750;52.418;20.742;2023-09-12T07:21:08;18.70;;;16.70;;
75171;SDS011;63750;52.418;20.742;2023-09-12T07:23:37;20.10;;;18.00;;
75171;SDS011;63750;52.418;20.742;2023-09-12T07:26:05;19.50;;;17.50;;
75171;SDS011;63750;52.418;20.742;2023-09-12T07:28:38;19.90;;;17.80;;
75171;SDS011;63750;52.418;20.742;2023-09-12T07:31:06;18.50;;;16.50;;
75171;SDS011;63750;52.418;20.742;2023-09-12T07:33:35;18.30;;;16.40;;
75171;SDS011;63750;52.418;20.742;2023-09-12T07:36:04;20.40;;;18.30;;
75171;SDS011;63750;52.418;20.742;2023-09-12T07:38:32;19.50;;;17.50;;
75171;SDS011;63750;52.418;20.742;2023-09-12T07:41:00;19.00;;;16.60;;
75171;SDS011;63750;52.418;20.742;2023-09-12T07:43:28;19.80;;;16.70;;
75171;SDS011;63750;52.418;20.742;2023-09-12T07:45:56;17.90;;;15.80;;
75171;SDS011;63750;52.418;20.742;2023-09-12T07:48:25;19.60;;;17.20;;
75171;SDS011;63750;52.418;20.742;2023-09-12T07:50:53;17.10;;;15.40;;
75171;SDS011;63750;52.418;20.742;2023-09-12T07:53:21;19.20;;;17.00;;
75171;SDS011;63750;52.418;20.742;2023-09-12T07:55:49;19.30;;;17.20;;
75171;SDS011;63750;52.418;20.742;2023-09-12T07:58:18;18.30;;;15.90;;
75171;SDS011;63750;52.418;20.742;2023-09-12T08:00:46;19.10;;;16.90;;
75171;SDS011;63750;52.418;20.742;2023-09-12T08:03:14;20.50;;;17.10;;
75171;SDS011;63750;52.418;20.742;2023-09-12T08:05:43;43.50;;;35.40;;
75171;SDS011;63750;52.418;20.742;2023-09-12T08:08:20;63.30;;;50.10;;
75171;SDS011;63750;52.418;20.742;2023-09-12T08:10:48;68.90;;;54.40;;
75171;SDS011;63750;52.418;20.742;2023-09-12T08:13:16;35.90;;;28.80;;
75171;SDS011;63750;52.418;20.742;2023-09-12T08:15:44;51.60;;;38.80;;
75171;SDS011;63750;52.418;20.742;2023-09-12T08:18:13;28.40;;;23.60;;
75171;SDS011;63750;52.418;20.742;2023-09-12T08:20:41;21.30;;;18.60;;
75171;SDS011;63750;52.418;20.742;2023-09-12T08:23:10;18.40;;;16.50;;
75171;SDS011;63750;52.418;20.742;2023-09-12T08:25:42;18.50;;;16.00;;
75171;SDS011;63750;52.418;20.742;2023-09-12T08:28:11;19.40;;;17.50;;
75171;SDS011;63750;52.418;20.742;2023-09-12T08:30:41;17.10;;;15.40;;
75171;SDS011;63750;52.418;20.742;2023-09-12T08:33:11;17.20;;;15.50;;
75171;SDS011;63750;52.418;20.742;2023-09-12T08:35:39;17.20;;;15.50;;
75171;SDS011;63750;52.418;20.742;2023-09-12T08:38:08;15.50;;;14.00;;
75171;SDS011;63750;52.418;20.742;2023-09-12T08:40:37;17.70;;;15.80;;
75171;SDS011;63750;52.418;20.742;2023-09-12T08:43:05;16.40;;;14.70;;
75171;SDS011;63750;52.418;20.742;2023-09-12T08:45:34;15.60;;;14.10;;
75171;SDS011;63750;52.418;20.742;2023-09-12T08:48:03;14.70;;;13.10;;
75171;SDS011;63750;52.418;20.742;2023-09-12T08:50:33;15.20;;;13.60;;
75171;SDS011;63750;52.418;20.742;2023-09-12T08:53:02;13.30;;;12.00;;
75171;SDS011;63750;52.418;20.742;2023-09-12T08:55:30;15.40;;;13.80;;
75171;SDS011;63750;52.418;20.742;2023-09-12T08:57:58;14.50;;;13.00;;
75171;SDS011;63750;52.418;20.742;2023-09-12T09:00:29;15.50;;;14.10;;
75171;SDS011;63750;52.418;20.742;2023-09-12T09:02:57;14.70;;;13.20;;
75171;SDS011;63750;52.418;20.742;2023-09-12T09:05:27;15.50;;;14.00;;
75171;SDS011;63750;52.418;20.742;2023-09-12T09:07:56;15.40;;;13.90;;
75171;SDS011;63750;52.418;20.742;2023-09-12T09:10:25;15.70;;;14.10;;
75171;SDS011;63750;52.418;20.742;2023-09-12T09:12:53;14.50;;;13.00;;
75171;SDS011;63750;52.418;20.742;2023-09-12T09:15:22;16.00;;;14.30;;
75171;SDS011;63750;52.418;20.742;2023-09-12T09:17:52;15.30;;;13.80;;
75171;SDS011;63750;52.418;20.742;2023-09-12T09:20:26;15.40;;;13.80;;
75171;SDS011;63750;52.418;20.742;2023-09-12T09:23:03;14.20;;;12.80;;
75171;SDS011;63750;52.418;20.742;2023-09-12T09:25:33;15.50;;;13.90;;
75171;SDS011;63750;52.418;20.742;2023-09-12T09:28:03;16.10;;;13.90;;
75171;SDS011;63750;52.418;20.742;2023-09-12T09:30:42;15.70;;;14.20;;
75171;SDS011;63750;52.418;20.742;2023-09-12T09:33:12;15.40;;;14.00;;
75171;SDS011;63750;52.418;20.742;2023-09-12T09:35:42;14.60;;;12.90;;
75171;SDS011;63750;52.418;20.742;2023-09-12T09:38:12;14.10;;;12.60;;
75171;SDS011;63750;52.418;20.742;2023-09-12T09:40:40;14.20;;;12.80;;
75171;SDS011;63750;52.418;20.742;2023-09-12T09:43:08;16.10;;;13.80;;
75171;SDS011;63750;52.418;20.742;2023-09-12T09:45:43;13.70;;;11.80;;
75171;SDS011;63750;52.418;20.742;2023-09-12T09:48:18;13.80;;;12.40;;
75171;SDS011;63750;52.418;20.742;2023-09-12T09:50:48;13.10;;;11.90;;
75171;SDS011;63750;52.418;20.742;2023-09-12T09:53:16;13.70;;;12.40;;
75171;SDS011;63750;52.418;20.742;2023-09-12T09:55:47;13.70;;;12.40;;
75171;SDS011;63750;52.418;20.742;2023-09-12T09:58:16;13.40;;;12.00;;
75171;SDS011;63750;52.418;20.742;2023-09-12T10:00:44;13.10;;;12.00;;
75171;SDS011;63750;52.418;20.742;2023-09-12T10:03:13;13.10;;;11.80;;
75171;SDS011;63750;52.418;20.742;2023-09-12T10:05:48;12.50;;;11.40;;
75171;SDS011;63750;52.418;20.742;2023-09-12T10:08:20;13.20;;;11.90;;
75171;SDS011;63750;52.418;20.742;2023-09-12T10:10:50;12.20;;;11.00;;
75171;SDS011;63750;52.418;20.742;2023-09-12T10:13:19;12.20;;;10.90;;
75171;SDS011;63750;52.418;20.742;2023-09-12T10:15:50;12.90;;;11.70;;
75171;SDS011;63750;52.418;20.742;2023-09-12T10:18:21;12.80;;;10.90;;
75171;SDS011;63750;52.418;20.742;2023-09-12T10:20:52;12.70;;;11.50;;
75171;SDS011;63750;52.418;20.742;2023-09-12T10:23:23;12.10;;;11.00;;
75171;SDS011;63750;52.418;20.742;2023-09-12T10:25:59;13.00;;;11.70;;
75171;SDS011;63750;52.418;20.742;2023-09-12T10:28:29;11.60;;;10.50;;
75171;SDS011;63750;52.418;20.742;2023-09-12T10:30:58;12.20;;;11.00;;
75171;SDS011;63750;52.418;20.742;2023-09-12T10:33:29;12.30;;;11.20;;
75171;SDS011;63750;52.418;20.742;2023-09-12T10:35:57;12.30;;;11.10;;
75171;SDS011;63750;52.418;20.742;2023-09-12T10:38:29;12.30;;;11.10;;
75171;SDS011;63750;52.418;20.742;2023-09-12T10:40:58;11.60;;;10.60;;
75171;SDS011;63750;52.418;20.742;2023-09-12T10:43:29;12.00;;;10.80;;
75171;SDS011;63750;52.418;20.742;2023-09-12T10:45:58;12.10;;;10.90;;
75171;SDS011;63750;52.418;20.742;2023-09-12T10:48:28;12.20;;;10.90;;
75171;SDS011;63750;52.418;20.742;2023-09-12T10:50:57;12.40;;;11.20;;
75171;SDS011;63750;52.418;20.742;2023-09-12T10:53:27;10.50;;;9.60;;
75171;SDS011;63750;52.418;20.742;2023-09-12T10:56:00;11.50;;;10.30;;
75171;SDS011;63750;52.418;20.742;2023-09-12T11:01:42;12.70;;;11.60;;
75171;SDS011;63750;52.418;20.742;2023-09-12T11:10:19;11.50;;;10.40;;
75171;SDS011;63750;52.418;20.742;2023-09-12T11:12:49;13.30;;;12.10;;
75171;SDS011;63750;52.418;20.742;2023-09-12T11:15:18;12.10;;;11.00;;
75171;SDS011;63750;52.418;20.742;2023-09-12T11:17:48;12.50;;;11.30;;
75171;SDS011;63750;52.418;20.742;2023-09-12T11:20:26;12.20;;;11.10;;
75171;SDS011;63750;52.418;20.742;2023-09-12T11:23:14;11.80;;;10.70;;
75171;SDS011;63750;52.418;20.742;2023-09-12T11:25:43;17.20;;;15.50;;
75171;SDS011;63750;52.418;20.742;2023-09-12T11:28:11;12.80;;;11.50;;
75171;SDS011;63750;52.418;20.742;2023-09-12T11:30:39;12.50;;;11.40;;
75171;SDS011;63750;52.418;20.742;2023-09-12T11:33:23;11.90;;;10.80;;
75171;SDS011;63750;52.418;20.742;2023-09-12T11:35:53;12.80;;;11.50;;
75171;SDS011;63750;52.418;20.742;2023-09-12T11:38:28;13.10;;;11.80;;
75171;SDS011;63750;52.418;20.742;2023-09-12T11:40:57;12.10;;;11.10;;
75171;SDS011;63750;52.418;20.742;2023-09-12T11:43:26;12.00;;;10.90;;
75171;SDS011;63750;52.418;20.742;2023-09-12T11:45:55;12.60;;;11.40;;
75171;SDS011;63750;52.418;20.742;2023-09-12T11:48:24;13.10;;;11.80;;
75171;SDS011;63750;52.418;20.742;2023-09-12T11:50:55;12.00;;;10.90;;
75171;SDS011;63750;52.418;20.742;2023-09-12T11:53:24;12.40;;;11.20;;
75171;SDS011;63750;52.418;20.742;2023-09-12T11:55:54;12.50;;;11.30;;
75171;SDS011;63750;52.418;20.742;2023-09-12T11:58:23;12.40;;;11.20;;
75171;SDS011;63750;52.418;20.742;2023-09-12T12:00:53;12.30;;;11.10;;
75171;SDS011;63750;52.418;20.742;2023-09-12T12:03:23;12.40;;;11.10;;
75171;SDS011;63750;52.418;20.742;2023-09-12T12:05:52;12.70;;;11.60;;
75171;SDS011;63750;52.418;20.742;2023-09-12T12:08:21;12.70;;;11.60;;
75171;SDS011;63750;52.418;20.742;2023-09-12T12:10:50;12.30;;;11.10;;
75171;SDS011;63750;52.418;20.742;2023-09-12T12:13:19;12.80;;;11.70;;
75171;SDS011;63750;52.418;20.742;2023-09-12T12:15:48;12.80;;;11.70;;
75171;SDS011;63750;52.418;20.742;2023-09-12T12:18:17;13.50;;;12.20;;
75171;SDS011;63750;52.418;20.742;2023-09-12T12:20:45;13.10;;;11.80;;
75171;SDS011;63750;52.418;20.742;2023-09-12T12:23:13;13.20;;;11.90;;
75171;SDS011;63750;52.418;20.742;2023-09-12T12:25:41;12.00;;;10.80;;
75171;SDS011;63750;52.418;20.742;2023-09-12T12:28:09;12.50;;;11.30;;
75171;SDS011;63750;52.418;20.742;2023-09-12T12:30:38;12.40;;;11.20;;
75171;SDS011;63750;52.418;20.742;2023-09-12T12:33:07;12.50;;;11.40;;
75171;SDS011;63750;52.418;20.742;2023-09-12T12:35:36;12.40;;;11.30;;
75171;SDS011;63750;52.418;20.742;2023-09-12T12:38:05;12.70;;;11.50;;
75171;SDS011;63750;52.418;20.742;2023-09-12T12:40:36;13.10;;;11.90;;
75171;SDS011;63750;52.418;20.742;2023-09-12T12:43:05;13.50;;;12.10;;
75171;SDS011;63750;52.418;20.742;2023-09-12T12:45:51;12.70;;;11.50;;
75171;SDS011;63750;52.418;20.742;2023-09-12T12:48:29;11.70;;;10.60;;
75171;SDS011;63750;52.418;20.742;2023-09-12T12:50:58;11.60;;;10.60;;
75171;SDS011;63750;52.418;20.742;2023-09-12T12:53:38;12.10;;;11.00;;
75171;SDS011;63750;52.418;20.742;2023-09-12T12:56:07;11.80;;;10.80;;
75171;SDS011;63750;52.418;20.742;2023-09-12T12:58:37;12.60;;;11.50;;
75171;SDS011;63750;52.418;20.742;2023-09-12T13:01:05;11.90;;;10.80;;
75171;SDS011;63750;52.418;20.742;2023-09-12T13:03:33;11.70;;;10.70;;
75171;SDS011;63750;52.418;20.742;2023-09-12T13:06:02;12.90;;;11.70;;
75171;SDS011;63750;52.418;20.742;2023-09-12T13:08:30;11.90;;;10.80;;
75171;SDS011;63750;52.418;20.742;2023-09-12T13:10:58;11.90;;;10.90;;
75171;SDS011;63750;52.418;20.742;2023-09-12T13:13:26;11.40;;;10.30;;
75171;SDS011;63750;52.418;20.742;2023-09-12T13:15:54;12.60;;;11.50;;
75171;SDS011;63750;52.418;20.742;2023-09-12T13:18:22;11.10;;;10.20;;
75171;SDS011;63750;52.418;20.742;2023-09-12T13:20:51;12.40;;;11.30;;
75171;SDS011;63750;52.418;20.742;2023-09-12T13:23:19;11.50;;;10.30;;
75171;SDS011;63750;52.418;20.742;2023-09-12T13:25:47;12.20;;;11.10;;
75171;SDS011;63750;52.418;20.742;2023-09-12T13:28:15;11.50;;;10.50;;
75171;SDS011;63750;52.418;20.742;2023-09-12T13:30:44;12.10;;;10.90;;
75171;SDS011;63750;52.418;20.742;2023-09-12T13:33:12;12.60;;;11.50;;
75171;SDS011;63750;52.418;20.742;2023-09-12T13:35:41;12.40;;;11.30;;
75171;SDS011;63750;52.418;20.742;2023-09-12T13:38:09;12.80;;;11.70;;
75171;SDS011;63750;52.418;20.742;2023-09-12T13:40:37;12.30;;;11.20;;
75171;SDS011;63750;52.418;20.742;2023-09-12T13:43:06;12.10;;;11.00;;
75171;SDS011;63750;52.418;20.742;2023-09-12T13:45:34;12.80;;;11.70;;
75171;SDS011;63750;52.418;20.742;2023-09-12T13:48:03;12.90;;;11.80;;
75171;SDS011;63750;52.418;20.742;2023-09-12T13:50:32;11.40;;;10.40;;
75171;SDS011;63750;52.418;20.742;2023-09-12T13:53:01;12.30;;;11.10;;
75171;SDS011;63750;52.418;20.742;2023-09-12T13:55:30;12.80;;;11.60;;
75171;SDS011;63750;52.418;20.742;2023-09-12T13:57:58;12.30;;;11.20;;
75171;SDS011;63750;52.418;20.742;2023-09-12T14:00:27;13.70;;;12.40;;
75171;SDS011;63750;52.418;20.742;2023-09-12T14:02:55;13.00;;;11.90;;
75171;SDS011;63750;52.418;20.742;2023-09-12T14:05:23;12.60;;;11.50;;
75171;SDS011;63750;52.418;20.742;2023-09-12T14:07:52;12.90;;;11.80;;
75171;SDS011;63750;52.418;20.742;2023-09-12T14:10:20;12.40;;;11.20;;
75171;SDS011;63750;52.418;20.742;2023-09-12T14:12:48;12.20;;;11.10;;
75171;SDS011;63750;52.418;20.742;2023-09-12T14:15:16;12.80;;;11.60;;
75171;SDS011;63750;52.418;20.742;2023-09-12T14:17:45;12.20;;;11.00;;
75171;SDS011;63750;52.418;20.742;2023-09-12T14:20:13;12.40;;;11.20;;
75171;SDS011;63750;52.418;20.742;2023-09-12T14:22:41;13.20;;;11.80;;
75171;SDS011;63750;52.418;20.742;2023-09-12T14:25:09;12.20;;;11.20;;
75171;SDS011;63750;52.418;20.742;2023-09-12T14:27:38;12.30;;;11.20;;
75171;SDS011;63750;52.418;20.742;2023-09-12T14:30:07;13.10;;;11.90;;
75171;SDS011;63750;52.418;20.742;2023-09-12T14:32:37;13.50;;;12.20;;